sensor_id;sensor_type;location;lat;lon;timestamp;P1;durP1;ratioP1;P2;durP2;ratioP2
44228;SDS011;29904;51.058;5.378;2022-11-15T00:00:44;11.93;;;8.35;;
44228;SDS011;29904;51.058;5.378;2022-11-15T00:03:16;12.18;;;8.30;;
44228;SDS011;29904;51.058;5.378;2022-11-15T00:05:43;13.23;;;8.47;;
44228;SDS011;29904;51.058;5.378;2022-11-15T00:08:09;14.18;;;8.63;;
44228;SDS011;29904;51.058;5.378;2022-11-15T00:10:35;12.75;;;7.88;;
44228;SDS011;29904;51.058;5.378;2022-11-15T00:13:08;10.95;;;7.85;;
44228;SDS011;29904;51.058;5.378;2022-11-15T00:15:36;12.20;;;7.70;;
44228;SDS011;29904;51.058;5.378;2022-11-15T00:18:06;13.30;;;8.40;;
44228;SDS011;29904;51.058;5.378;2022-11-15T00:20:37;12.23;;;7.80;;
44228;SDS011;29904;51.058;5.378;2022-11-15T00:23:05;13.02;;;7.57;;
44228;SDS011;29904;51.058;5.378;2022-11-15T00:25:31;10.77;;;7.60;;
44228;SDS011;29904;51.058;5.378;2022-11-15T00:27:58;10.52;;;7.45;;
44228;SDS011;29904;51.058;5.378;2022-11-15T00:30:24;11.13;;;7.55;;
44228;SDS011;29904;51.058;5.378;2022-11-15T00:32:51;10.93;;;7.43;;
44228;SDS011;29904;51.058;5.378;2022-11-15T00:35:17;12.20;;;7.63;;
44228;SDS011;29904;51.058;5.378;2022-11-15T00:37:48;11.27;;;7.38;;
44228;SDS011;29904;51.058;5.378;2022-11-15T00:40:14;11.25;;;7.50;;
44228;SDS011;29904;51.058;5.378;2022-11-15T00:42:40;10.88;;;7.32;;
44228;SDS011;29904;51.058;5.378;2022-11-15T00:45:06;11.00;;;7.60;;
44228;SDS011;29904;51.058;5.378;2022-11-15T00:47:33;10.43;;;7.03;;
44228;SDS011;29904;51.058;5.378;2022-11-15T00:49:59;9.90;;;7.05;;
44228;SDS011;29904;51.058;5.378;2022-11-15T00:52:24;11.55;;;7.40;;
44228;SDS011;29904;51.058;5.378;2022-11-15T00:54:50;12.05;;;7.18;;
44228;SDS011;29904;51.058;5.378;2022-11-15T00:57:16;10.57;;;6.87;;
44228;SDS011;29904;51.058;5.378;2022-11-15T00:59:42;9.88;;;6.80;;
44228;SDS011;29904;51.058;5.378;2022-11-15T01:02:07;11.40;;;7.10;;
44228;SDS011;29904;51.058;5.378;2022-11-15T01:04:33;10.60;;;7.77;;
44228;SDS011;29904;51.058;5.378;2022-11-15T01:07:01;10.13;;;7.00;;
44228;SDS011;29904;51.058;5.378;2022-11-15T01:09:27;10.30;;;7.65;;
44228;SDS011;29904;51.058;5.378;2022-11-15T01:11:52;8.93;;;6.40;;
44228;SDS011;29904;51.058;5.378;2022-11-15T01:14:18;10.63;;;6.80;;
44228;SDS011;29904;51.058;5.378;2022-11-15T01:16:44;9.80;;;6.57;;
44228;SDS011;29904;51.058;5.378;2022-11-15T01:19:09;12.07;;;7.33;;
44228;SDS011;29904;51.058;5.378;2022-11-15T01:21:37;10.30;;;7.28;;
44228;SDS011;29904;51.058;5.378;2022-11-15T01:24:03;12.40;;;6.90;;
44228;SDS011;29904;51.058;5.378;2022-11-15T01:26:29;11.15;;;7.28;;
44228;SDS011;29904;51.058;5.378;2022-11-15T01:28:54;11.93;;;7.43;;
44228;SDS011;29904;51.058;5.378;2022-11-15T01:31:20;11.10;;;7.20;;
44228;SDS011;29904;51.058;5.378;2022-11-15T01:33:47;10.30;;;6.80;;
44228;SDS011;29904;51.058;5.378;2022-11-15T01:36:17;10.07;;;7.20;;
44228;SDS011;29904;51.058;5.378;2022-11-15T01:38:46;11.27;;;7.55;;
44228;SDS011;29904;51.058;5.378;2022-11-15T01:41:18;10.68;;;6.90;;
44228;SDS011;29904;51.058;5.378;2022-11-15T01:43:46;8.77;;;6.37;;
44228;SDS011;29904;51.058;5.378;2022-11-15T01:49:01;11.27;;;6.97;;
44228;SDS011;29904;51.058;5.378;2022-11-15T01:51:31;10.48;;;6.82;;
44228;SDS011;29904;51.058;5.378;2022-11-15T01:54:00;9.80;;;6.30;;
44228;SDS011;29904;51.058;5.378;2022-11-15T01:56:31;8.88;;;6.75;;
44228;SDS011;29904;51.058;5.378;2022-11-15T01:59:02;9.50;;;6.40;;
44228;SDS011;29904;51.058;5.378;2022-11-15T02:01:31;10.13;;;7.25;;
44228;SDS011;29904;51.058;5.378;2022-11-15T02:04:00;11.90;;;6.60;;
44228;SDS011;29904;51.058;5.378;2022-11-15T02:06:30;10.68;;;7.13;;
44228;SDS011;29904;51.058;5.378;2022-11-15T02:08:57;10.32;;;6.88;;
44228;SDS011;29904;51.058;5.378;2022-11-15T02:11:24;10.43;;;7.60;;
44228;SDS011;29904;51.058;5.378;2022-11-15T02:13:49;8.97;;;6.70;;
44228;SDS011;29904;51.058;5.378;2022-11-15T02:18:52;9.43;;;6.63;;
44228;SDS011;29904;51.058;5.378;2022-11-15T02:21:28;11.27;;;7.57;;
44228;SDS011;29904;51.058;5.378;2022-11-15T02:24:46;10.73;;;7.03;;
44228;SDS011;29904;51.058;5.378;2022-11-15T02:33:03;9.88;;;7.07;;
44228;SDS011;29904;51.058;5.378;2022-11-15T02:36:01;9.93;;;6.67;;
44228;SDS011;29904;51.058;5.378;2022-11-15T02:38:44;10.50;;;7.00;;
44228;SDS011;29904;51.058;5.378;2022-11-15T02:41:20;10.13;;;6.88;;
44228;SDS011;29904;51.058;5.378;2022-11-15T02:46:58;10.93;;;6.57;;
44228;SDS011;29904;51.058;5.378;2022-11-15T02:49:52;9.63;;;6.60;;
44228;SDS011;29904;51.058;5.378;2022-11-15T02:52:20;8.77;;;6.38;;
44228;SDS011;29904;51.058;5.378;2022-11-15T02:54:57;10.77;;;6.57;;
44228;SDS011;29904;51.058;5.378;2022-11-15T02:58:11;9.57;;;6.70;;
44228;SDS011;29904;51.058;5.378;2022-11-15T03:00:58;8.60;;;6.13;;
44228;SDS011;29904;51.058;5.378;2022-11-15T03:04:09;9.10;;;6.35;;
44228;SDS011;29904;51.058;5.378;2022-11-15T03:06:50;9.43;;;6.10;;
44228;SDS011;29904;51.058;5.378;2022-11-15T03:10:05;10.98;;;6.57;;
44228;SDS011;29904;51.058;5.378;2022-11-15T03:12:50;9.47;;;6.40;;
44228;SDS011;29904;51.058;5.378;2022-11-15T03:15:27;11.00;;;6.60;;
44228;SDS011;29904;51.058;5.378;2022-11-15T03:18:01;10.90;;;7.03;;
44228;SDS011;29904;51.058;5.378;2022-11-15T03:21:07;8.60;;;6.43;;
44228;SDS011;29904;51.058;5.378;2022-11-15T03:23:36;11.63;;;7.57;;
44228;SDS011;29904;51.058;5.378;2022-11-15T03:26:03;9.70;;;7.30;;
44228;SDS011;29904;51.058;5.378;2022-11-15T03:28:38;10.38;;;6.85;;
44228;SDS011;29904;51.058;5.378;2022-11-15T03:31:12;9.70;;;6.40;;
44228;SDS011;29904;51.058;5.378;2022-11-15T03:33:58;10.38;;;7.03;;
44228;SDS011;29904;51.058;5.378;2022-11-15T03:36:28;11.40;;;7.43;;
44228;SDS011;29904;51.058;5.378;2022-11-15T03:38:58;11.15;;;6.97;;
44228;SDS011;29904;51.058;5.378;2022-11-15T03:41:29;9.93;;;7.10;;
44228;SDS011;29904;51.058;5.378;2022-11-15T03:47:00;9.55;;;6.90;;
44228;SDS011;29904;51.058;5.378;2022-11-15T03:49:42;13.18;;;7.75;;
44228;SDS011;29904;51.058;5.378;2022-11-15T03:52:12;9.43;;;6.72;;
44228;SDS011;29904;51.058;5.378;2022-11-15T03:54:52;10.50;;;7.10;;
44228;SDS011;29904;51.058;5.378;2022-11-15T03:57:20;10.23;;;7.10;;
44228;SDS011;29904;51.058;5.378;2022-11-15T03:59:46;9.70;;;6.93;;
44228;SDS011;29904;51.058;5.378;2022-11-15T04:02:12;10.70;;;6.90;;
44228;SDS011;29904;51.058;5.378;2022-11-15T04:04:40;10.95;;;7.10;;
44228;SDS011;29904;51.058;5.378;2022-11-15T04:07:06;10.80;;;7.10;;
44228;SDS011;29904;51.058;5.378;2022-11-15T04:09:31;8.40;;;6.20;;
44228;SDS011;29904;51.058;5.378;2022-11-15T04:11:57;8.67;;;6.43;;
44228;SDS011;29904;51.058;5.378;2022-11-15T04:14:23;9.60;;;6.60;;
44228;SDS011;29904;51.058;5.378;2022-11-15T04:16:48;8.88;;;6.43;;
44228;SDS011;29904;51.058;5.378;2022-11-15T04:19:14;11.27;;;6.73;;
44228;SDS011;29904;51.058;5.378;2022-11-15T04:21:58;9.53;;;6.93;;
44228;SDS011;29904;51.058;5.378;2022-11-15T04:24:52;8.70;;;6.28;;
44228;SDS011;29904;51.058;5.378;2022-11-15T04:27:17;8.75;;;6.72;;
44228;SDS011;29904;51.058;5.378;2022-11-15T04:29:45;10.70;;;6.68;;
44228;SDS011;29904;51.058;5.378;2022-11-15T04:32:10;9.03;;;6.47;;
44228;SDS011;29904;51.058;5.378;2022-11-15T04:34:36;14.07;;;7.27;;
44228;SDS011;29904;51.058;5.378;2022-11-15T04:37:03;8.50;;;6.78;;
44228;SDS011;29904;51.058;5.378;2022-11-15T04:39:38;9.43;;;6.63;;
44228;SDS011;29904;51.058;5.378;2022-11-15T04:42:07;11.18;;;7.00;;
44228;SDS011;29904;51.058;5.378;2022-11-15T04:44:33;9.70;;;6.87;;
44228;SDS011;29904;51.058;5.378;2022-11-15T04:46:59;10.73;;;6.70;;
44228;SDS011;29904;51.058;5.378;2022-11-15T04:49:24;10.30;;;6.43;;
44228;SDS011;29904;51.058;5.378;2022-11-15T04:51:50;9.67;;;6.63;;
44228;SDS011;29904;51.058;5.378;2022-11-15T04:54:16;8.90;;;6.38;;
44228;SDS011;29904;51.058;5.378;2022-11-15T04:56:42;9.35;;;6.80;;
44228;SDS011;29904;51.058;5.378;2022-11-15T04:59:07;9.43;;;6.55;;
44228;SDS011;29904;51.058;5.378;2022-11-15T05:01:33;8.27;;;6.20;;
44228;SDS011;29904;51.058;5.378;2022-11-15T05:04:01;9.97;;;6.07;;
44228;SDS011;29904;51.058;5.378;2022-11-15T05:06:45;10.02;;;6.07;;
44228;SDS011;29904;51.058;5.378;2022-11-15T05:09:15;8.07;;;5.93;;
44228;SDS011;29904;51.058;5.378;2022-11-15T05:11:42;9.95;;;6.82;;
44228;SDS011;29904;51.058;5.378;2022-11-15T05:14:08;8.75;;;5.50;;
44228;SDS011;29904;51.058;5.378;2022-11-15T05:16:33;7.25;;;5.00;;
44228;SDS011;29904;51.058;5.378;2022-11-15T05:19:01;8.70;;;4.90;;
44228;SDS011;29904;51.058;5.378;2022-11-15T05:21:27;7.13;;;4.50;;
44228;SDS011;29904;51.058;5.378;2022-11-15T05:23:53;6.70;;;4.07;;
44228;SDS011;29904;51.058;5.378;2022-11-15T05:26:22;6.85;;;4.13;;
44228;SDS011;29904;51.058;5.378;2022-11-15T05:28:51;5.75;;;3.92;;
44228;SDS011;29904;51.058;5.378;2022-11-15T05:31:19;6.55;;;3.50;;
44228;SDS011;29904;51.058;5.378;2022-11-15T05:33:44;7.53;;;3.65;;
44228;SDS011;29904;51.058;5.378;2022-11-15T05:36:31;5.47;;;3.65;;
44228;SDS011;29904;51.058;5.378;2022-11-15T05:39:04;4.60;;;3.33;;
44228;SDS011;29904;51.058;5.378;2022-11-15T05:41:32;5.57;;;3.25;;
44228;SDS011;29904;51.058;5.378;2022-11-15T05:44:09;5.10;;;2.80;;
44228;SDS011;29904;51.058;5.378;2022-11-15T05:46:36;5.07;;;3.08;;
44228;SDS011;29904;51.058;5.378;2022-11-15T05:49:07;5.38;;;3.40;;
44228;SDS011;29904;51.058;5.378;2022-11-15T05:51:36;5.68;;;2.95;;
44228;SDS011;29904;51.058;5.378;2022-11-15T05:54:02;4.68;;;2.92;;
44228;SDS011;29904;51.058;5.378;2022-11-15T05:56:30;4.35;;;2.92;;
44228;SDS011;29904;51.058;5.378;2022-11-15T05:58:56;6.32;;;2.78;;
44228;SDS011;29904;51.058;5.378;2022-11-15T06:01:23;4.28;;;2.90;;
44228;SDS011;29904;51.058;5.378;2022-11-15T06:03:51;4.55;;;2.83;;
44228;SDS011;29904;51.058;5.378;2022-11-15T06:06:17;6.93;;;3.13;;
44228;SDS011;29904;51.058;5.378;2022-11-15T06:08:43;5.73;;;3.33;;
44228;SDS011;29904;51.058;5.378;2022-11-15T06:11:08;5.85;;;3.30;;
44228;SDS011;29904;51.058;5.378;2022-11-15T06:13:34;5.70;;;3.50;;
44228;SDS011;29904;51.058;5.378;2022-11-15T06:16:00;6.88;;;3.40;;
44228;SDS011;29904;51.058;5.378;2022-11-15T06:18:26;7.57;;;3.90;;
44228;SDS011;29904;51.058;5.378;2022-11-15T06:20:51;5.40;;;3.50;;
44228;SDS011;29904;51.058;5.378;2022-11-15T06:23:17;5.85;;;3.55;;
44228;SDS011;29904;51.058;5.378;2022-11-15T06:25:46;6.05;;;3.63;;
44228;SDS011;29904;51.058;5.378;2022-11-15T06:28:12;6.88;;;3.50;;
44228;SDS011;29904;51.058;5.378;2022-11-15T06:30:38;6.10;;;3.00;;
44228;SDS011;29904;51.058;5.378;2022-11-15T06:33:04;5.90;;;3.40;;
44228;SDS011;29904;51.058;5.378;2022-11-15T06:35:32;4.87;;;3.30;;
44228;SDS011;29904;51.058;5.378;2022-11-15T06:38:04;5.72;;;3.47;;
44228;SDS011;29904;51.058;5.378;2022-11-15T06:40:35;5.38;;;3.40;;
44228;SDS011;29904;51.058;5.378;2022-11-15T06:43:02;5.78;;;3.53;;
44228;SDS011;29904;51.058;5.378;2022-11-15T06:45:29;4.93;;;3.20;;
44228;SDS011;29904;51.058;5.378;2022-11-15T06:47:55;5.28;;;3.13;;
44228;SDS011;29904;51.058;5.378;2022-11-15T06:50:20;4.93;;;3.40;;
44228;SDS011;29904;51.058;5.378;2022-11-15T06:52:46;6.23;;;3.57;;
44228;SDS011;29904;51.058;5.378;2022-11-15T06:55:12;6.93;;;3.40;;
44228;SDS011;29904;51.058;5.378;2022-11-15T06:57:43;6.27;;;3.37;;
44228;SDS011;29904;51.058;5.378;2022-11-15T07:00:20;5.97;;;3.40;;
44228;SDS011;29904;51.058;5.378;2022-11-15T07:02:47;6.20;;;4.05;;
44228;SDS011;29904;51.058;5.378;2022-11-15T07:05:14;6.65;;;4.10;;
44228;SDS011;29904;51.058;5.378;2022-11-15T07:07:41;8.00;;;3.75;;
44228;SDS011;29904;51.058;5.378;2022-11-15T07:10:06;6.68;;;3.25;;
44228;SDS011;29904;51.058;5.378;2022-11-15T07:12:33;5.18;;;3.53;;
44228;SDS011;29904;51.058;5.378;2022-11-15T07:14:58;5.77;;;3.40;;
44228;SDS011;29904;51.058;5.378;2022-11-15T07:17:24;5.37;;;3.20;;
44228;SDS011;29904;51.058;5.378;2022-11-15T07:19:50;6.40;;;3.23;;
44228;SDS011;29904;51.058;5.378;2022-11-15T07:22:16;5.00;;;2.90;;
44228;SDS011;29904;51.058;5.378;2022-11-15T07:24:41;7.53;;;3.30;;
44228;SDS011;29904;51.058;5.378;2022-11-15T07:27:07;4.35;;;3.15;;
44228;SDS011;29904;51.058;5.378;2022-11-15T07:29:33;5.93;;;3.05;;
44228;SDS011;29904;51.058;5.378;2022-11-15T07:31:58;4.40;;;3.42;;
44228;SDS011;29904;51.058;5.378;2022-11-15T07:34:28;6.13;;;3.40;;
44228;SDS011;29904;51.058;5.378;2022-11-15T07:36:55;5.88;;;3.80;;
44228;SDS011;29904;51.058;5.378;2022-11-15T07:39:21;6.15;;;3.60;;
44228;SDS011;29904;51.058;5.378;2022-11-15T07:41:47;4.63;;;3.08;;
44228;SDS011;29904;51.058;5.378;2022-11-15T07:44:14;5.63;;;3.42;;
44228;SDS011;29904;51.058;5.378;2022-11-15T07:46:39;5.07;;;3.08;;
44228;SDS011;29904;51.058;5.378;2022-11-15T07:49:05;4.75;;;2.95;;
44228;SDS011;29904;51.058;5.378;2022-11-15T07:51:33;4.57;;;3.30;;
44228;SDS011;29904;51.058;5.378;2022-11-15T07:54:00;4.28;;;2.80;;
44228;SDS011;29904;51.058;5.378;2022-11-15T07:56:26;4.13;;;2.60;;
44228;SDS011;29904;51.058;5.378;2022-11-15T07:58:52;7.10;;;3.40;;
44228;SDS011;29904;51.058;5.378;2022-11-15T08:01:18;7.03;;;3.50;;
44228;SDS011;29904;51.058;5.378;2022-11-15T08:03:43;5.05;;;3.30;;
44228;SDS011;29904;51.058;5.378;2022-11-15T08:06:09;5.85;;;3.45;;
44228;SDS011;29904;51.058;5.378;2022-11-15T08:08:37;5.63;;;3.65;;
44228;SDS011;29904;51.058;5.378;2022-11-15T08:11:03;5.47;;;3.08;;
44228;SDS011;29904;51.058;5.378;2022-11-15T08:13:28;5.43;;;3.33;;
44228;SDS011;29904;51.058;5.378;2022-11-15T08:15:58;5.40;;;3.40;;
44228;SDS011;29904;51.058;5.378;2022-11-15T08:18:26;5.67;;;3.10;;
44228;SDS011;29904;51.058;5.378;2022-11-15T08:20:51;5.00;;;2.90;;
44228;SDS011;29904;51.058;5.378;2022-11-15T08:23:17;5.43;;;3.08;;
44228;SDS011;29904;51.058;5.378;2022-11-15T08:25:44;5.47;;;3.00;;
44228;SDS011;29904;51.058;5.378;2022-11-15T08:28:12;4.65;;;2.50;;
44228;SDS011;29904;51.058;5.378;2022-11-15T08:30:38;4.17;;;2.50;;
44228;SDS011;29904;51.058;5.378;2022-11-15T08:33:09;4.03;;;2.40;;
44228;SDS011;29904;51.058;5.378;2022-11-15T08:35:36;3.72;;;2.50;;
44228;SDS011;29904;51.058;5.378;2022-11-15T08:38:02;5.07;;;2.50;;
44228;SDS011;29904;51.058;5.378;2022-11-15T08:40:28;5.55;;;2.40;;
44228;SDS011;29904;51.058;5.378;2022-11-15T08:42:55;4.13;;;1.98;;
44228;SDS011;29904;51.058;5.378;2022-11-15T08:45:21;5.43;;;2.20;;
44228;SDS011;29904;51.058;5.378;2022-11-15T08:47:47;3.50;;;1.70;;
44228;SDS011;29904;51.058;5.378;2022-11-15T08:50:13;4.88;;;1.90;;
44228;SDS011;29904;51.058;5.378;2022-11-15T08:52:38;3.87;;;1.80;;
44228;SDS011;29904;51.058;5.378;2022-11-15T08:55:04;2.43;;;1.57;;
44228;SDS011;29904;51.058;5.378;2022-11-15T08:57:32;3.40;;;1.30;;
44228;SDS011;29904;51.058;5.378;2022-11-15T08:59:58;3.53;;;1.23;;
44228;SDS011;29904;51.058;5.378;2022-11-15T09:02:23;4.30;;;1.20;;
44228;SDS011;29904;51.058;5.378;2022-11-15T09:04:49;2.80;;;1.10;;
44228;SDS011;29904;51.058;5.378;2022-11-15T09:07:15;2.92;;;1.10;;
44228;SDS011;29904;51.058;5.378;2022-11-15T09:09:41;4.10;;;1.10;;
44228;SDS011;29904;51.058;5.378;2022-11-15T09:12:07;2.00;;;1.10;;
44228;SDS011;29904;51.058;5.378;2022-11-15T09:14:34;4.95;;;1.20;;
44228;SDS011;29904;51.058;5.378;2022-11-15T09:17:00;2.30;;;1.00;;
44228;SDS011;29904;51.058;5.378;2022-11-15T09:19:26;3.67;;;0.90;;
44228;SDS011;29904;51.058;5.378;2022-11-15T09:21:55;2.95;;;0.93;;
44228;SDS011;29904;51.058;5.378;2022-11-15T09:24:21;3.65;;;1.00;;
44228;SDS011;29904;51.058;5.378;2022-11-15T09:26:49;2.95;;;1.00;;
44228;SDS011;29904;51.058;5.378;2022-11-15T09:29:16;2.53;;;1.10;;
44228;SDS011;29904;51.058;5.378;2022-11-15T09:31:42;1.83;;;0.80;;
44228;SDS011;29904;51.058;5.378;2022-11-15T09:34:08;3.10;;;1.00;;
44228;SDS011;29904;51.058;5.378;2022-11-15T09:36:33;2.30;;;0.90;;
44228;SDS011;29904;51.058;5.378;2022-11-15T09:38:59;3.67;;;1.20;;
44228;SDS011;29904;51.058;5.378;2022-11-15T09:41:29;2.93;;;1.10;;
44228;SDS011;29904;51.058;5.378;2022-11-15T09:47:24;3.45;;;0.93;;
44228;SDS011;29904;51.058;5.378;2022-11-15T09:50:17;3.27;;;1.00;;
44228;SDS011;29904;51.058;5.378;2022-11-15T09:52:55;3.13;;;1.00;;
44228;SDS011;29904;51.058;5.378;2022-11-15T09:55:21;3.87;;;1.13;;
44228;SDS011;29904;51.058;5.378;2022-11-15T10:00:52;4.90;;;1.00;;
44228;SDS011;29904;51.058;5.378;2022-11-15T10:06:02;2.80;;;0.80;;
44228;SDS011;29904;51.058;5.378;2022-11-15T10:11:03;2.97;;;0.87;;
44228;SDS011;29904;51.058;5.378;2022-11-15T10:13:32;3.27;;;0.90;;
44228;SDS011;29904;51.058;5.378;2022-11-15T10:19:03;2.95;;;0.98;;
44228;SDS011;29904;51.058;5.378;2022-11-15T10:24:49;4.43;;;1.00;;
44228;SDS011;29904;51.058;5.378;2022-11-15T10:27:17;2.70;;;0.70;;
44228;SDS011;29904;51.058;5.378;2022-11-15T10:29:44;3.33;;;0.77;;
44228;SDS011;29904;51.058;5.378;2022-11-15T10:32:12;2.63;;;0.80;;
44228;SDS011;29904;51.058;5.378;2022-11-15T10:34:41;2.83;;;0.80;;
44228;SDS011;29904;51.058;5.378;2022-11-15T10:37:06;4.50;;;1.00;;
44228;SDS011;29904;51.058;5.378;2022-11-15T10:39:32;3.33;;;0.80;;
44228;SDS011;29904;51.058;5.378;2022-11-15T10:42:02;2.80;;;0.80;;
44228;SDS011;29904;51.058;5.378;2022-11-15T10:44:43;3.17;;;0.75;;
44228;SDS011;29904;51.058;5.378;2022-11-15T10:50:07;3.95;;;0.70;;
44228;SDS011;29904;51.058;5.378;2022-11-15T10:52:53;2.33;;;0.75;;
44228;SDS011;29904;51.058;5.378;2022-11-15T10:55:25;3.10;;;0.60;;
44228;SDS011;29904;51.058;5.378;2022-11-15T10:58:03;3.93;;;0.70;;
44228;SDS011;29904;51.058;5.378;2022-11-15T11:00:37;1.70;;;0.47;;
44228;SDS011;29904;51.058;5.378;2022-11-15T11:03:22;3.65;;;0.80;;
44228;SDS011;29904;51.058;5.378;2022-11-15T11:06:04;2.50;;;0.63;;
44228;SDS011;29904;51.058;5.378;2022-11-15T11:08:35;2.88;;;0.70;;
44228;SDS011;29904;51.058;5.378;2022-11-15T11:11:01;3.17;;;0.60;;
44228;SDS011;29904;51.058;5.378;2022-11-15T11:21:18;2.65;;;0.63;;
44228;SDS011;29904;51.058;5.378;2022-11-15T11:23:59;2.30;;;0.60;;
44228;SDS011;29904;51.058;5.378;2022-11-15T11:29:38;2.60;;;0.50;;
44228;SDS011;29904;51.058;5.378;2022-11-15T11:38:02;2.22;;;0.60;;
44228;SDS011;29904;51.058;5.378;2022-11-15T11:44:10;3.00;;;0.75;;
44228;SDS011;29904;51.058;5.378;2022-11-15T11:49:50;3.65;;;0.50;;
44228;SDS011;29904;51.058;5.378;2022-11-15T11:57:20;2.85;;;0.70;;
44228;SDS011;29904;51.058;5.378;2022-11-15T11:59:58;4.30;;;1.00;;
44228;SDS011;29904;51.058;5.378;2022-11-15T12:02:31;3.07;;;0.97;;
44228;SDS011;29904;51.058;5.378;2022-11-15T12:05:12;2.30;;;0.73;;
44228;SDS011;29904;51.058;5.378;2022-11-15T12:07:43;3.47;;;0.60;;
44228;SDS011;29904;51.058;5.378;2022-11-15T12:12:56;4.32;;;0.70;;
44228;SDS011;29904;51.058;5.378;2022-11-15T12:15:30;2.90;;;0.70;;
44228;SDS011;29904;51.058;5.378;2022-11-15T12:18:00;4.00;;;0.80;;
44228;SDS011;29904;51.058;5.378;2022-11-15T12:20:27;3.60;;;0.60;;
44228;SDS011;29904;51.058;5.378;2022-11-15T12:31:11;2.30;;;0.60;;
44228;SDS011;29904;51.058;5.378;2022-11-15T12:33:45;2.92;;;0.70;;
44228;SDS011;29904;51.058;5.378;2022-11-15T12:41:22;3.22;;;0.75;;
44228;SDS011;29904;51.058;5.378;2022-11-15T12:43:50;2.72;;;0.60;;
44228;SDS011;29904;51.058;5.378;2022-11-15T12:51:11;4.28;;;0.60;;
44228;SDS011;29904;51.058;5.378;2022-11-15T12:53:38;3.40;;;0.60;;
44228;SDS011;29904;51.058;5.378;2022-11-15T13:06:38;3.53;;;0.75;;
44228;SDS011;29904;51.058;5.378;2022-11-15T13:12:48;3.75;;;1.08;;
44228;SDS011;29904;51.058;5.378;2022-11-15T13:17:43;3.78;;;0.82;;
44228;SDS011;29904;51.058;5.378;2022-11-15T13:33:19;2.13;;;0.73;;
44228;SDS011;29904;51.058;5.378;2022-11-15T13:35:58;2.90;;;1.00;;
44228;SDS011;29904;51.058;5.378;2022-11-15T13:38:29;2.45;;;0.73;;
44228;SDS011;29904;51.058;5.378;2022-11-15T13:40:57;3.65;;;0.88;;
44228;SDS011;29904;51.058;5.378;2022-11-15T13:43:27;2.95;;;0.70;;
44228;SDS011;29904;51.058;5.378;2022-11-15T13:48:44;4.18;;;0.80;;
44228;SDS011;29904;51.058;5.378;2022-11-15T13:54:01;2.42;;;0.65;;
44228;SDS011;29904;51.058;5.378;2022-11-15T13:56:30;3.72;;;0.75;;
44228;SDS011;29904;51.058;5.378;2022-11-15T13:58:57;2.13;;;0.60;;
44228;SDS011;29904;51.058;5.378;2022-11-15T14:01:23;2.00;;;0.70;;
44228;SDS011;29904;51.058;5.378;2022-11-15T14:03:54;5.10;;;1.40;;
44228;SDS011;29904;51.058;5.378;2022-11-15T14:06:23;4.05;;;1.15;;
44228;SDS011;29904;51.058;5.378;2022-11-15T14:11:36;3.37;;;0.90;;
44228;SDS011;29904;51.058;5.378;2022-11-15T14:19:04;3.95;;;1.40;;
44228;SDS011;29904;51.058;5.378;2022-11-15T14:21:31;3.30;;;1.17;;
44228;SDS011;29904;51.058;5.378;2022-11-15T14:24:17;21.77;;;12.32;;
44228;SDS011;29904;51.058;5.378;2022-11-15T14:26:44;5.70;;;2.58;;
44228;SDS011;29904;51.058;5.378;2022-11-15T14:29:26;3.40;;;1.60;;
44228;SDS011;29904;51.058;5.378;2022-11-15T14:34:44;7.88;;;5.60;;
44228;SDS011;29904;51.058;5.378;2022-11-15T14:37:18;7.35;;;4.80;;
44228;SDS011;29904;51.058;5.378;2022-11-15T14:39:47;11.60;;;7.88;;
44228;SDS011;29904;51.058;5.378;2022-11-15T14:42:13;10.60;;;8.05;;
44228;SDS011;29904;51.058;5.378;2022-11-15T14:44:38;3.75;;;1.60;;
44228;SDS011;29904;51.058;5.378;2022-11-15T14:47:08;24.92;;;16.48;;
44228;SDS011;29904;51.058;5.378;2022-11-15T14:49:34;12.47;;;8.63;;
44228;SDS011;29904;51.058;5.378;2022-11-15T14:52:00;17.10;;;14.13;;
44228;SDS011;29904;51.058;5.378;2022-11-15T14:54:25;14.68;;;11.45;;
44228;SDS011;29904;51.058;5.378;2022-11-15T14:56:51;13.18;;;10.25;;
44228;SDS011;29904;51.058;5.378;2022-11-15T14:59:17;14.07;;;10.67;;
44228;SDS011;29904;51.058;5.378;2022-11-15T15:01:42;13.77;;;9.97;;
44228;SDS011;29904;51.058;5.378;2022-11-15T15:04:09;6.65;;;3.83;;
44228;SDS011;29904;51.058;5.378;2022-11-15T15:06:35;11.90;;;8.85;;
44228;SDS011;29904;51.058;5.378;2022-11-15T15:09:01;6.47;;;5.32;;
44228;SDS011;29904;51.058;5.378;2022-11-15T15:11:28;4.15;;;3.30;;
44228;SDS011;29904;51.058;5.378;2022-11-15T15:13:56;4.50;;;3.17;;
44228;SDS011;29904;51.058;5.378;2022-11-15T15:16:22;5.53;;;3.63;;
44228;SDS011;29904;51.058;5.378;2022-11-15T15:18:49;11.73;;;8.98;;
44228;SDS011;29904;51.058;5.378;2022-11-15T15:23:50;6.47;;;5.10;;
44228;SDS011;29904;51.058;5.378;2022-11-15T15:26:16;8.30;;;5.90;;
44228;SDS011;29904;51.058;5.378;2022-11-15T15:28:42;9.67;;;6.00;;
44228;SDS011;29904;51.058;5.378;2022-11-15T15:31:09;6.97;;;4.53;;
44228;SDS011;29904;51.058;5.378;2022-11-15T15:33:35;5.28;;;3.15;;
44228;SDS011;29904;51.058;5.378;2022-11-15T15:36:01;6.85;;;3.67;;
44228;SDS011;29904;51.058;5.378;2022-11-15T15:38:27;10.18;;;5.05;;
44228;SDS011;29904;51.058;5.378;2022-11-15T15:40:53;9.57;;;5.32;;
44228;SDS011;29904;51.058;5.378;2022-11-15T15:43:21;12.80;;;7.47;;
44228;SDS011;29904;51.058;5.378;2022-11-15T15:45:46;11.40;;;7.70;;
44228;SDS011;29904;51.058;5.378;2022-11-15T15:48:13;9.07;;;7.00;;
44228;SDS011;29904;51.058;5.378;2022-11-15T15:50:41;6.75;;;5.05;;
44228;SDS011;29904;51.058;5.378;2022-11-15T15:53:10;4.30;;;2.33;;
44228;SDS011;29904;51.058;5.378;2022-11-15T15:55:37;5.30;;;3.30;;
44228;SDS011;29904;51.058;5.378;2022-11-15T15:58:03;10.63;;;7.30;;
44228;SDS011;29904;51.058;5.378;2022-11-15T16:00:29;11.98;;;7.78;;
44228;SDS011;29904;51.058;5.378;2022-11-15T16:02:57;11.35;;;8.32;;
44228;SDS011;29904;51.058;5.378;2022-11-15T16:05:25;16.73;;;12.77;;
44228;SDS011;29904;51.058;5.378;2022-11-15T16:07:51;24.20;;;18.75;;
44228;SDS011;29904;51.058;5.378;2022-11-15T16:12:48;18.77;;;14.37;;
44228;SDS011;29904;51.058;5.378;2022-11-15T16:15:13;33.40;;;23.77;;
44228;SDS011;29904;51.058;5.378;2022-11-15T16:18:15;17.20;;;12.73;;
44228;SDS011;29904;51.058;5.378;2022-11-15T16:23:09;20.35;;;14.55;;
44228;SDS011;29904;51.058;5.378;2022-11-15T16:25:40;16.17;;;11.48;;
44228;SDS011;29904;51.058;5.378;2022-11-15T16:28:20;10.82;;;8.02;;
44228;SDS011;29904;51.058;5.378;2022-11-15T16:30:46;8.95;;;7.10;;
44228;SDS011;29904;51.058;5.378;2022-11-15T16:33:13;15.60;;;12.05;;
44228;SDS011;29904;51.058;5.378;2022-11-15T16:35:39;14.23;;;8.40;;
44228;SDS011;29904;51.058;5.378;2022-11-15T16:38:12;27.85;;;20.88;;
44228;SDS011;29904;51.058;5.378;2022-11-15T16:40:39;27.80;;;20.42;;
44228;SDS011;29904;51.058;5.378;2022-11-15T16:43:05;27.57;;;18.83;;
44228;SDS011;29904;51.058;5.378;2022-11-15T16:45:32;17.05;;;11.50;;
44228;SDS011;29904;51.058;5.378;2022-11-15T16:47:59;13.18;;;9.63;;
44228;SDS011;29904;51.058;5.378;2022-11-15T16:50:26;26.45;;;17.23;;
44228;SDS011;29904;51.058;5.378;2022-11-15T16:52:54;19.60;;;14.15;;
44228;SDS011;29904;51.058;5.378;2022-11-15T16:55:22;9.82;;;7.68;;
44228;SDS011;29904;51.058;5.378;2022-11-15T16:57:49;12.30;;;9.90;;
44228;SDS011;29904;51.058;5.378;2022-11-15T17:00:19;7.78;;;6.78;;
44228;SDS011;29904;51.058;5.378;2022-11-15T17:02:47;10.50;;;6.22;;
44228;SDS011;29904;51.058;5.378;2022-11-15T17:05:14;6.93;;;5.10;;
44228;SDS011;29904;51.058;5.378;2022-11-15T17:07:45;9.52;;;7.75;;
44228;SDS011;29904;51.058;5.378;2022-11-15T17:10:14;8.80;;;6.30;;
44228;SDS011;29904;51.058;5.378;2022-11-15T17:12:40;11.43;;;8.87;;
44228;SDS011;29904;51.058;5.378;2022-11-15T17:15:08;12.03;;;10.47;;
44228;SDS011;29904;51.058;5.378;2022-11-15T17:17:36;14.65;;;11.63;;